CEB612 RPSP-RPLL
Flight info
| Callsign | CEB612 |
|---|---|
| Flight time | 1h 1m |
| Altitude | 36000 |
| Route | LAMOK2R LAMOK B473 LAIYA LAIYA3P |
| Aircraft | A321/M-SDE3FGHIRWY/LB1 |
Departure
| Time | 2026-04-16 13:00 |
|---|---|
| Airport | Bohol-Panglao International Airport (RPSP) |
Arrival
| Time | 2026-04-16 14:01 |
|---|---|
| Airport | Ninoy Aquino International Airport (RPLL) |
| Time | Latitude | Longitude | Altitude | Speed | Heading |
|---|---|---|---|---|---|
| 2026-04-16 12:44 | 9.56857 | 123.77135 | 48 ft | 0 kts | 121° |
| 2026-04-16 12:49 | 9.56862 | 123.77125 | 48 ft | 2 kts | 121° |
| 2026-04-16 12:49 | 9.56870 | 123.77113 | 48 ft | 2 kts | 121° |
| 2026-04-16 12:49 | 9.56878 | 123.77100 | 48 ft | 2 kts | 121° |
| 2026-04-16 12:50 | 9.56885 | 123.77086 | 48 ft | 2 kts | 121° |
| 2026-04-16 12:50 | 9.56890 | 123.77079 | 48 ft | 2 kts | 121° |
| 2026-04-16 12:50 | 9.56894 | 123.77071 | 48 ft | 2 kts | 121° |
| 2026-04-16 12:50 | 9.56898 | 123.77056 | 48 ft | 2 kts | 76° |
| 2026-04-16 12:51 | 9.56891 | 123.77042 | 48 ft | 1 kts | 40° |
| 2026-04-16 12:51 | 9.56885 | 123.77039 | 48 ft | 1 kts | 26° |
| 2026-04-16 12:51 | 9.56882 | 123.77037 | 48 ft | 0 kts | 30° |
| 2026-04-16 12:53 | 9.56892 | 123.77043 | 48 ft | 3 kts | 30° |
| 2026-04-16 12:53 | 9.56919 | 123.77059 | 48 ft | 5 kts | 30° |
| 2026-04-16 12:54 | 9.56962 | 123.77084 | 48 ft | 8 kts | 31° |
| 2026-04-16 12:54 | 9.57021 | 123.77120 | 48 ft | 10 kts | 31° |
| 2026-04-16 12:54 | 9.57089 | 123.77161 | 48 ft | 11 kts | 31° |
| 2026-04-16 12:54 | 9.57161 | 123.77205 | 48 ft | 12 kts | 31° |
| 2026-04-16 12:55 | 9.57231 | 123.77244 | 48 ft | 9 kts | 22° |
| 2026-04-16 12:55 | 9.57281 | 123.77227 | 48 ft | 8 kts | 301° |
| 2026-04-16 12:55 | 9.57314 | 123.77169 | 48 ft | 10 kts | 300° |
| 2026-04-16 12:55 | 9.57352 | 123.77103 | 48 ft | 11 kts | 302° |
| 2026-04-16 12:56 | 9.57419 | 123.77084 | 48 ft | 11 kts | 23° |
| 2026-04-16 12:56 | 9.57493 | 123.77126 | 48 ft | 12 kts | 30° |
| 2026-04-16 12:56 | 9.57574 | 123.77174 | 48 ft | 14 kts | 31° |
| 2026-04-16 12:56 | 9.57666 | 123.77230 | 48 ft | 16 kts | 31° |
| 2026-04-16 12:57 | 9.57767 | 123.77290 | 48 ft | 17 kts | 30° |
| 2026-04-16 12:57 | 9.57878 | 123.77356 | 48 ft | 18 kts | 30° |
| 2026-04-16 12:57 | 9.57989 | 123.77422 | 48 ft | 18 kts | 31° |
| 2026-04-16 12:57 | 9.58100 | 123.77489 | 48 ft | 18 kts | 31° |
| 2026-04-16 12:58 | 9.58208 | 123.77553 | 48 ft | 16 kts | 30° |
| 2026-04-16 12:58 | 9.58295 | 123.77595 | 48 ft | 10 kts | 21° |
| 2026-04-16 12:58 | 9.58341 | 123.77619 | 48 ft | 3 kts | 36° |
| 2026-04-16 12:58 | 9.58346 | 123.77635 | 48 ft | 1 kts | 140° |
| 2026-04-16 12:59 | 9.58328 | 123.77627 | 48 ft | 4 kts | 217° |
| 2026-04-16 12:59 | 9.58318 | 123.77620 | 48 ft | 0 kts | 212° |
| 2026-04-16 13:00 | 9.57673 | 123.77235 | 48 ft | 126 kts | 211° |
| 2026-04-16 13:00 | 9.56739 | 123.76674 | 177 ft | 170 kts | 210° |
| 2026-04-16 13:00 | 9.55736 | 123.76039 | 789 ft | 173 kts | 211° |
| 2026-04-16 13:00 | 9.54771 | 123.75322 | 1432 ft | 176 kts | 233° |
| 2026-04-16 13:01 | 9.54499 | 123.74157 | 1957 ft | 174 kts | 288° |
| 2026-04-16 13:01 | 9.55228 | 123.73199 | 2320 ft | 179 kts | 333° |
| 2026-04-16 13:01 | 9.56440 | 123.72969 | 2741 ft | 186 kts | 9° |
| 2026-04-16 13:01 | 9.57781 | 123.73167 | 3219 ft | 200 kts | 8° |
| 2026-04-16 13:02 | 9.59210 | 123.73322 | 3612 ft | 217 kts | 7° |
| 2026-04-16 13:02 | 9.60812 | 123.73479 | 3965 ft | 240 kts | 6° |
| 2026-04-16 13:02 | 9.62545 | 123.73643 | 4504 ft | 254 kts | 6° |
| 2026-04-16 13:02 | 9.64309 | 123.73809 | 5250 ft | 258 kts | 6° |
| 2026-04-16 13:03 | 9.66080 | 123.73975 | 6036 ft | 260 kts | 6° |
| 2026-04-16 13:03 | 9.67888 | 123.74146 | 6772 ft | 263 kts | 6° |
| 2026-04-16 13:03 | 9.69741 | 123.74320 | 7489 ft | 267 kts | 7° |
| 2026-04-16 13:03 | 9.71584 | 123.74493 | 8188 ft | 270 kts | 7° |
| 2026-04-16 13:04 | 9.73488 | 123.74676 | 8878 ft | 274 kts | 7° |
| 2026-04-16 13:04 | 9.75397 | 123.74860 | 9531 ft | 278 kts | 7° |
| 2026-04-16 13:04 | 9.77354 | 123.75045 | 10183 ft | 281 kts | 6° |
| 2026-04-16 13:04 | 9.79300 | 123.75126 | 10824 ft | 285 kts | 2° |
| 2026-04-16 13:05 | 9.81338 | 123.75114 | 11174 ft | 299 kts | 1° |
| 2026-04-16 13:05 | 9.83496 | 123.75086 | 11447 ft | 315 kts | 1° |
| 2026-04-16 13:05 | 9.85762 | 123.75056 | 11713 ft | 331 kts | 1° |
| 2026-04-16 13:05 | 9.88124 | 123.74971 | 12018 ft | 343 kts | 355° |
| 2026-04-16 13:06 | 9.90476 | 123.74448 | 12517 ft | 350 kts | 343° |
| 2026-04-16 13:06 | 9.92699 | 123.73437 | 13101 ft | 353 kts | 333° |
| 2026-04-16 13:06 | 9.94843 | 123.72208 | 13663 ft | 355 kts | 332° |
| 2026-04-16 13:06 | 9.96985 | 123.70943 | 14194 ft | 357 kts | 331° |
| 2026-04-16 13:07 | 9.99161 | 123.69657 | 14717 ft | 359 kts | 332° |
| 2026-04-16 13:07 | 10.01332 | 123.68378 | 15223 ft | 362 kts | 332° |
| 2026-04-16 13:07 | 10.03515 | 123.67096 | 15728 ft | 364 kts | 332° |
| 2026-04-16 13:07 | 10.05737 | 123.65796 | 16194 ft | 367 kts | 332° |
| 2026-04-16 13:08 | 10.07944 | 123.64507 | 16645 ft | 369 kts | 332° |
| 2026-04-16 13:08 | 10.10199 | 123.63187 | 17114 ft | 372 kts | 332° |
| 2026-04-16 13:08 | 10.12454 | 123.61871 | 17561 ft | 374 kts | 332° |
| 2026-04-16 13:08 | 10.14758 | 123.60525 | 18009 ft | 377 kts | 332° |
| 2026-04-16 13:09 | 10.17038 | 123.59194 | 18429 ft | 380 kts | 332° |
| 2026-04-16 13:09 | 10.19332 | 123.57853 | 18825 ft | 383 kts | 332° |
| 2026-04-16 13:09 | 10.21648 | 123.56499 | 19215 ft | 386 kts | 332° |
| 2026-04-16 13:09 | 10.24000 | 123.55123 | 19615 ft | 388 kts | 332° |
| 2026-04-16 13:10 | 10.26360 | 123.53744 | 20005 ft | 391 kts | 332° |
| 2026-04-16 13:10 | 10.28747 | 123.52348 | 20385 ft | 394 kts | 332° |
| 2026-04-16 13:10 | 10.31152 | 123.50946 | 20775 ft | 397 kts | 332° |
| 2026-04-16 13:10 | 10.33544 | 123.49552 | 21159 ft | 399 kts | 332° |
| 2026-04-16 13:11 | 10.35978 | 123.48136 | 21521 ft | 402 kts | 331° |
| 2026-04-16 13:11 | 10.38420 | 123.46711 | 21877 ft | 405 kts | 331° |
| 2026-04-16 13:11 | 10.40890 | 123.45270 | 22244 ft | 408 kts | 331° |
| 2026-04-16 13:11 | 10.43368 | 123.43824 | 22611 ft | 410 kts | 331° |
| 2026-04-16 13:12 | 10.45869 | 123.42363 | 22983 ft | 412 kts | 331° |
| 2026-04-16 13:12 | 10.48355 | 123.40910 | 23349 ft | 414 kts | 331° |
| 2026-04-16 13:12 | 10.50862 | 123.39443 | 23712 ft | 416 kts | 331° |
| 2026-04-16 13:12 | 10.53365 | 123.37978 | 24074 ft | 418 kts | 331° |
| 2026-04-16 13:13 | 10.55932 | 123.36478 | 24432 ft | 420 kts | 331° |
| 2026-04-16 13:13 | 10.58448 | 123.35007 | 24768 ft | 422 kts | 330° |
| 2026-04-16 13:13 | 10.61067 | 123.33475 | 25104 ft | 425 kts | 330° |
| 2026-04-16 13:13 | 10.63567 | 123.32013 | 25415 ft | 427 kts | 330° |
| 2026-04-16 13:14 | 10.66209 | 123.30469 | 25740 ft | 430 kts | 330° |
| 2026-04-16 13:14 | 10.68719 | 123.29002 | 26049 ft | 432 kts | 330° |
| 2026-04-16 13:14 | 10.71363 | 123.27457 | 26372 ft | 434 kts | 330° |
| 2026-04-16 13:14 | 10.73993 | 123.25920 | 26697 ft | 435 kts | 330° |
| 2026-04-16 13:15 | 10.74832 | 123.25429 | 26800 ft | 436 kts | 330° |
| 2026-04-16 13:16 | 10.87244 | 123.18156 | 28181 ft | 445 kts | 330° |
| 2026-04-16 13:16 | 10.89958 | 123.16563 | 28455 ft | 447 kts | 330° |
| 2026-04-16 13:16 | 10.92665 | 123.14974 | 28726 ft | 449 kts | 330° |
| 2026-04-16 13:16 | 10.95378 | 123.13381 | 29005 ft | 451 kts | 330° |
| 2026-04-16 13:17 | 10.98114 | 123.11777 | 29291 ft | 453 kts | 330° |
| 2026-04-16 13:17 | 11.00877 | 123.10157 | 29598 ft | 454 kts | 330° |
| 2026-04-16 13:17 | 11.03632 | 123.08542 | 29920 ft | 455 kts | 330° |
| 2026-04-16 13:17 | 11.06381 | 123.06928 | 30223 ft | 456 kts | 329° |
| 2026-04-16 13:18 | 11.09134 | 123.05312 | 30551 ft | 456 kts | 329° |
| 2026-04-16 13:18 | 11.11912 | 123.03680 | 30971 ft | 454 kts | 329° |
| 2026-04-16 13:18 | 11.14671 | 123.02059 | 31405 ft | 452 kts | 329° |
| 2026-04-16 13:18 | 11.17410 | 123.00449 | 31824 ft | 450 kts | 329° |
| 2026-04-16 13:19 | 11.20107 | 122.98862 | 32237 ft | 449 kts | 329° |
| 2026-04-16 13:19 | 11.22817 | 122.97267 | 32645 ft | 447 kts | 329° |
| 2026-04-16 13:19 | 11.25492 | 122.95692 | 33059 ft | 446 kts | 329° |
| 2026-04-16 13:19 | 11.28112 | 122.94147 | 33454 ft | 445 kts | 329° |
| 2026-04-16 13:20 | 11.30889 | 122.92511 | 33877 ft | 443 kts | 329° |
| 2026-04-16 13:20 | 11.33554 | 122.90942 | 34287 ft | 442 kts | 329° |
| 2026-04-16 13:20 | 11.36247 | 122.89358 | 34631 ft | 442 kts | 329° |
| 2026-04-16 13:20 | 11.38894 | 122.87802 | 34912 ft | 443 kts | 329° |
| 2026-04-16 13:21 | 11.41581 | 122.86221 | 35180 ft | 444 kts | 329° |
| 2026-04-16 13:21 | 11.44264 | 122.84642 | 35435 ft | 445 kts | 329° |
| 2026-04-16 13:21 | 11.46962 | 122.83051 | 35675 ft | 446 kts | 329° |
| 2026-04-16 13:21 | 11.49662 | 122.81459 | 35862 ft | 448 kts | 329° |
| 2026-04-16 13:22 | 11.52370 | 122.79861 | 35870 ft | 448 kts | 329° |
| 2026-04-16 13:22 | 11.57801 | 122.76657 | 35873 ft | 449 kts | 329° |
| 2026-04-16 13:23 | 11.63091 | 122.73275 | 35872 ft | 449 kts | 326° |
| 2026-04-16 13:23 | 11.68332 | 122.69750 | 35876 ft | 449 kts | 326° |
| 2026-04-16 13:24 | 11.73559 | 122.66226 | 35880 ft | 448 kts | 326° |
| 2026-04-16 13:24 | 11.78754 | 122.62727 | 35884 ft | 448 kts | 326° |
| 2026-04-16 13:25 | 11.83981 | 122.59203 | 35885 ft | 448 kts | 326° |
| 2026-04-16 13:25 | 11.89201 | 122.55684 | 35888 ft | 448 kts | 326° |
| 2026-04-16 13:26 | 11.94407 | 122.52173 | 35889 ft | 448 kts | 326° |
| 2026-04-16 13:26 | 11.99622 | 122.48652 | 35889 ft | 447 kts | 327° |
| 2026-04-16 13:27 | 12.04828 | 122.45136 | 35889 ft | 448 kts | 327° |
| 2026-04-16 13:27 | 12.09981 | 122.41656 | 35891 ft | 448 kts | 327° |
| 2026-04-16 13:28 | 12.15262 | 122.38086 | 35888 ft | 448 kts | 326° |
| 2026-04-16 13:28 | 12.20446 | 122.34579 | 35891 ft | 448 kts | 326° |
| 2026-04-16 13:29 | 12.25666 | 122.31046 | 35888 ft | 448 kts | 326° |
| 2026-04-16 13:29 | 12.30856 | 122.27530 | 35890 ft | 448 kts | 326° |
| 2026-04-16 13:30 | 12.36072 | 122.23997 | 35889 ft | 448 kts | 326° |
| 2026-04-16 13:30 | 12.41240 | 122.20446 | 35887 ft | 448 kts | 326° |
| 2026-04-16 13:31 | 12.46422 | 122.16846 | 35887 ft | 448 kts | 326° |
| 2026-04-16 13:31 | 12.51581 | 122.13259 | 35888 ft | 448 kts | 326° |
| 2026-04-16 13:32 | 12.56744 | 122.09670 | 35890 ft | 449 kts | 326° |
| 2026-04-16 13:32 | 12.61947 | 122.06053 | 35888 ft | 449 kts | 326° |
| 2026-04-16 13:33 | 12.67114 | 122.02459 | 35891 ft | 448 kts | 326° |
| 2026-04-16 13:33 | 12.72288 | 121.98858 | 35767 ft | 449 kts | 326° |
| 2026-04-16 13:33 | 12.74863 | 121.97064 | 35360 ft | 447 kts | 326° |
| 2026-04-16 13:34 | 12.77418 | 121.95285 | 34799 ft | 444 kts | 326° |
| 2026-04-16 13:34 | 12.79972 | 121.93507 | 34148 ft | 442 kts | 326° |
| 2026-04-16 13:34 | 12.82484 | 121.91756 | 33479 ft | 440 kts | 326° |
| 2026-04-16 13:34 | 12.85041 | 121.89974 | 32773 ft | 440 kts | 326° |
| 2026-04-16 13:35 | 12.87542 | 121.88231 | 32106 ft | 439 kts | 326° |
| 2026-04-16 13:35 | 12.90101 | 121.86445 | 31376 ft | 440 kts | 326° |
| 2026-04-16 13:35 | 12.92631 | 121.84680 | 30611 ft | 442 kts | 326° |
| 2026-04-16 13:35 | 12.95183 | 121.82899 | 29829 ft | 444 kts | 326° |
| 2026-04-16 13:36 | 12.97730 | 121.81121 | 29298 ft | 440 kts | 326° |
| 2026-04-16 13:36 | 13.00250 | 121.79362 | 28793 ft | 435 kts | 326° |
| 2026-04-16 13:36 | 13.02725 | 121.77634 | 28293 ft | 431 kts | 326° |
| 2026-04-16 13:36 | 13.05205 | 121.75902 | 27784 ft | 426 kts | 326° |
| 2026-04-16 13:37 | 13.07638 | 121.74202 | 27294 ft | 422 kts | 326° |
| 2026-04-16 13:37 | 13.10068 | 121.72504 | 26800 ft | 418 kts | 326° |
| 2026-04-16 13:37 | 13.12470 | 121.70824 | 26309 ft | 414 kts | 326° |
| 2026-04-16 13:37 | 13.14888 | 121.69134 | 25806 ft | 410 kts | 326° |
| 2026-04-16 13:38 | 13.17249 | 121.67481 | 25317 ft | 407 kts | 326° |
| 2026-04-16 13:38 | 13.19602 | 121.65836 | 24829 ft | 404 kts | 326° |
| 2026-04-16 13:38 | 13.21910 | 121.64221 | 24352 ft | 401 kts | 326° |
| 2026-04-16 13:38 | 13.24208 | 121.62613 | 23871 ft | 398 kts | 326° |
| 2026-04-16 13:39 | 13.26482 | 121.61021 | 23397 ft | 395 kts | 326° |
| 2026-04-16 13:39 | 13.28775 | 121.59414 | 22919 ft | 393 kts | 326° |
| 2026-04-16 13:39 | 13.31005 | 121.57852 | 22443 ft | 391 kts | 326° |
| 2026-04-16 13:39 | 13.33275 | 121.56261 | 21970 ft | 389 kts | 326° |
| 2026-04-16 13:40 | 13.35490 | 121.54709 | 21498 ft | 387 kts | 327° |
| 2026-04-16 13:40 | 13.37708 | 121.53153 | 21024 ft | 386 kts | 327° |
| 2026-04-16 13:40 | 13.39937 | 121.51591 | 20545 ft | 385 kts | 327° |
| 2026-04-16 13:40 | 13.42134 | 121.50052 | 20065 ft | 383 kts | 327° |
| 2026-04-16 13:41 | 13.44342 | 121.48502 | 19583 ft | 382 kts | 327° |
| 2026-04-16 13:41 | 13.46543 | 121.46956 | 19096 ft | 381 kts | 327° |
| 2026-04-16 13:41 | 13.48706 | 121.45438 | 18684 ft | 376 kts | 327° |
| 2026-04-16 13:41 | 13.50854 | 121.43928 | 18421 ft | 367 kts | 327° |
| 2026-04-16 13:42 | 13.52953 | 121.42454 | 18204 ft | 356 kts | 327° |
| 2026-04-16 13:42 | 13.54946 | 121.41054 | 18074 ft | 344 kts | 328° |
| 2026-04-16 13:42 | 13.56975 | 121.39841 | 17928 ft | 330 kts | 337° |
| 2026-04-16 13:42 | 13.59117 | 121.39020 | 17891 ft | 325 kts | 347° |
| 2026-04-16 13:43 | 13.61330 | 121.38459 | 17918 ft | 327 kts | 349° |
| 2026-04-16 13:43 | 13.63533 | 121.37947 | 17922 ft | 327 kts | 349° |
| 2026-04-16 13:43 | 13.65764 | 121.37433 | 17920 ft | 327 kts | 349° |
| 2026-04-16 13:43 | 13.68007 | 121.36912 | 17931 ft | 328 kts | 349° |
| 2026-04-16 13:44 | 13.70253 | 121.36388 | 17928 ft | 328 kts | 349° |
| 2026-04-16 13:44 | 13.72486 | 121.35862 | 17928 ft | 328 kts | 349° |
| 2026-04-16 13:44 | 13.74721 | 121.35335 | 17928 ft | 328 kts | 349° |
| 2026-04-16 13:44 | 13.76943 | 121.34811 | 17933 ft | 328 kts | 349° |
| 2026-04-16 13:45 | 13.79183 | 121.34281 | 17930 ft | 328 kts | 349° |
| 2026-04-16 13:45 | 13.81420 | 121.33752 | 17848 ft | 329 kts | 349° |
| 2026-04-16 13:45 | 13.83647 | 121.33226 | 17412 ft | 329 kts | 349° |
| 2026-04-16 13:45 | 13.85893 | 121.32694 | 16992 ft | 327 kts | 349° |
| 2026-04-16 13:46 | 13.88142 | 121.32161 | 16581 ft | 326 kts | 349° |
| 2026-04-16 13:46 | 13.90328 | 121.31644 | 16177 ft | 324 kts | 349° |
| 2026-04-16 13:46 | 13.92533 | 121.31122 | 15767 ft | 322 kts | 349° |
| 2026-04-16 13:46 | 13.94732 | 121.30600 | 15355 ft | 321 kts | 349° |
| 2026-04-16 13:47 | 13.96902 | 121.30086 | 14949 ft | 320 kts | 349° |
| 2026-04-16 13:47 | 13.99078 | 121.29569 | 14549 ft | 318 kts | 349° |
| 2026-04-16 13:47 | 14.01228 | 121.29060 | 14150 ft | 317 kts | 349° |
| 2026-04-16 13:47 | 14.03391 | 121.28577 | 13743 ft | 314 kts | 354° |
| 2026-04-16 13:48 | 14.05560 | 121.28449 | 13338 ft | 310 kts | 5° |
| 2026-04-16 13:48 | 14.07687 | 121.28697 | 12939 ft | 307 kts | 11° |
| 2026-04-16 13:48 | 14.09814 | 121.29055 | 12537 ft | 305 kts | 12° |
| 2026-04-16 13:48 | 14.11891 | 121.29418 | 12139 ft | 304 kts | 12° |
| 2026-04-16 13:49 | 14.13984 | 121.29783 | 11736 ft | 302 kts | 12° |
| 2026-04-16 13:49 | 14.16087 | 121.30145 | 11335 ft | 300 kts | 12° |
| 2026-04-16 13:49 | 14.18022 | 121.30476 | 10970 ft | 298 kts | 12° |
| 2026-04-16 13:49 | 14.19942 | 121.30804 | 10601 ft | 296 kts | 12° |
| 2026-04-16 13:50 | 14.21972 | 121.31148 | 10211 ft | 294 kts | 12° |
| 2026-04-16 13:50 | 14.24030 | 121.31496 | 9821 ft | 292 kts | 12° |
| 2026-04-16 13:50 | 14.26028 | 121.31834 | 9440 ft | 290 kts | 12° |
| 2026-04-16 13:50 | 14.28006 | 121.32170 | 9076 ft | 287 kts | 11° |
| 2026-04-16 13:51 | 14.29995 | 121.32507 | 8716 ft | 284 kts | 11° |
| 2026-04-16 13:51 | 14.31929 | 121.32835 | 8351 ft | 282 kts | 11° |
| 2026-04-16 13:51 | 14.33872 | 121.33165 | 7981 ft | 280 kts | 11° |
| 2026-04-16 13:51 | 14.35811 | 121.33492 | 7633 ft | 277 kts | 11° |
| 2026-04-16 13:52 | 14.37667 | 121.33806 | 7520 ft | 266 kts | 10° |
| 2026-04-16 13:52 | 14.39493 | 121.33823 | 7390 ft | 257 kts | 350° |
| 2026-04-16 13:52 | 14.41158 | 121.33132 | 7084 ft | 258 kts | 333° |
| 2026-04-16 13:52 | 14.42727 | 121.32199 | 6745 ft | 258 kts | 331° |
| 2026-04-16 13:53 | 14.44261 | 121.31265 | 6419 ft | 254 kts | 331° |
| 2026-04-16 13:53 | 14.45789 | 121.30347 | 6116 ft | 247 kts | 331° |
| 2026-04-16 13:53 | 14.47259 | 121.29472 | 5870 ft | 239 kts | 331° |
| 2026-04-16 13:53 | 14.48669 | 121.28637 | 5801 ft | 232 kts | 331° |
| 2026-04-16 13:54 | 14.50045 | 121.27824 | 5683 ft | 223 kts | 332° |
| 2026-04-16 13:54 | 14.51398 | 121.27027 | 5387 ft | 222 kts | 331° |
| 2026-04-16 13:54 | 14.52710 | 121.26256 | 5107 ft | 220 kts | 331° |
| 2026-04-16 13:54 | 14.54026 | 121.25484 | 4829 ft | 219 kts | 331° |
| 2026-04-16 13:55 | 14.55360 | 121.24699 | 4562 ft | 217 kts | 331° |
| 2026-04-16 13:55 | 14.56656 | 121.23937 | 4291 ft | 215 kts | 331° |
| 2026-04-16 13:55 | 14.57967 | 121.23166 | 4017 ft | 214 kts | 331° |
| 2026-04-16 13:55 | 14.59248 | 121.22412 | 3760 ft | 212 kts | 331° |
| 2026-04-16 13:56 | 14.60426 | 121.21468 | 3439 ft | 215 kts | 303° |
| 2026-04-16 13:56 | 14.60767 | 121.20003 | 3304 ft | 210 kts | 262° |
| 2026-04-16 13:56 | 14.60243 | 121.18663 | 3255 ft | 195 kts | 239° |
| 2026-04-16 13:56 | 14.59570 | 121.17524 | 3114 ft | 173 kts | 238° |
| 2026-04-16 13:57 | 14.58983 | 121.16529 | 2935 ft | 156 kts | 239° |
| 2026-04-16 13:57 | 14.58441 | 121.15586 | 2717 ft | 149 kts | 239° |
| 2026-04-16 13:57 | 14.57922 | 121.14664 | 2533 ft | 148 kts | 239° |
| 2026-04-16 13:58 | 14.56894 | 121.12817 | 2153 ft | 147 kts | 239° |
| 2026-04-16 13:58 | 14.56390 | 121.11909 | 1972 ft | 147 kts | 240° |
| 2026-04-16 13:58 | 14.55878 | 121.10987 | 1780 ft | 146 kts | 240° |
| 2026-04-16 13:58 | 14.55392 | 121.10113 | 1600 ft | 145 kts | 241° |
| 2026-04-16 13:59 | 14.54891 | 121.09209 | 1416 ft | 144 kts | 240° |
| 2026-04-16 13:59 | 14.54398 | 121.08321 | 1235 ft | 142 kts | 239° |
| 2026-04-16 13:59 | 14.53901 | 121.07426 | 1050 ft | 142 kts | 239° |
| 2026-04-16 13:59 | 14.53416 | 121.06552 | 872 ft | 141 kts | 239° |
| 2026-04-16 14:00 | 14.52928 | 121.05673 | 697 ft | 141 kts | 239° |
| 2026-04-16 14:00 | 14.52434 | 121.04783 | 515 ft | 141 kts | 238° |
| 2026-04-16 14:00 | 14.51946 | 121.03913 | 360 ft | 140 kts | 238° |
| 2026-04-16 14:00 | 14.51455 | 121.03025 | 163 ft | 141 kts | 239° |
| 2026-04-16 14:01 | 14.50995 | 121.02195 | 82 ft | 123 kts | 240° |
| 2026-04-16 14:01 | 14.50671 | 121.01609 | 82 ft | 62 kts | 240° |
| 2026-04-16 14:01 | 14.50553 | 121.01382 | 82 ft | 22 kts | 251° |
| 2026-04-16 14:01 | 14.50530 | 121.01246 | 82 ft | 14 kts | 262° |
| 2026-04-16 14:02 | 14.50535 | 121.01176 | 82 ft | 5 kts | 309° |
| 2026-04-16 14:02 | 14.50562 | 121.01162 | 82 ft | 4 kts | 0° |
| 2026-04-16 14:02 | 14.50590 | 121.01180 | 82 ft | 5 kts | 50° |
| 2026-04-16 14:02 | 14.50617 | 121.01223 | 82 ft | 8 kts | 59° |
| 2026-04-16 14:03 | 14.50646 | 121.01275 | 82 ft | 10 kts | 60° |
| 2026-04-16 14:03 | 14.50686 | 121.01348 | 82 ft | 12 kts | 60° |
| 2026-04-16 14:03 | 14.50734 | 121.01434 | 82 ft | 14 kts | 60° |
| 2026-04-16 14:03 | 14.50784 | 121.01527 | 82 ft | 15 kts | 60° |
| 2026-04-16 14:04 | 14.50838 | 121.01622 | 82 ft | 15 kts | 60° |
| 2026-04-16 14:04 | 14.50882 | 121.01701 | 82 ft | 9 kts | 60° |
| 2026-04-16 14:04 | 14.50909 | 121.01749 | 82 ft | 4 kts | 60° |
| 2026-04-16 14:04 | 14.50913 | 121.01756 | 82 ft | 0 kts | 60° |
| 2026-04-16 14:05 | 14.50914 | 121.01759 | 82 ft | 1 kts | 60° |
| 2026-04-16 14:05 | 14.50924 | 121.01777 | 82 ft | 4 kts | 60° |
| 2026-04-16 14:05 | 14.50944 | 121.01812 | 82 ft | 7 kts | 59° |
| 2026-04-16 14:05 | 14.50975 | 121.01868 | 82 ft | 10 kts | 61° |
| 2026-04-16 14:06 | 14.51008 | 121.01919 | 82 ft | 6 kts | 33° |
| 2026-04-16 14:06 | 14.51051 | 121.01903 | 82 ft | 8 kts | 315° |
| 2026-04-16 14:06 | 14.51098 | 121.01856 | 82 ft | 10 kts | 315° |
| 2026-04-16 14:06 | 14.51152 | 121.01800 | 82 ft | 11 kts | 315° |
| 2026-04-16 14:07 | 14.51211 | 121.01739 | 82 ft | 12 kts | 314° |
| 2026-04-16 14:07 | 14.51279 | 121.01666 | 82 ft | 14 kts | 315° |
| 2026-04-16 14:07 | 14.51347 | 121.01598 | 82 ft | 8 kts | 316° |
| 2026-04-16 14:07 | 14.51393 | 121.01572 | 82 ft | 7 kts | 12° |
| 2026-04-16 14:08 | 14.51445 | 121.01600 | 82 ft | 8 kts | 34° |
| 2026-04-16 14:08 | 14.51489 | 121.01637 | 82 ft | 8 kts | 45° |
| 2026-04-16 14:08 | 14.51535 | 121.01687 | 82 ft | 9 kts | 46° |
| 2026-04-16 14:08 | 14.51586 | 121.01739 | 82 ft | 10 kts | 44° |
| 2026-04-16 14:09 | 14.51648 | 121.01786 | 82 ft | 11 kts | 17° |
| 2026-04-16 14:09 | 14.51713 | 121.01758 | 82 ft | 10 kts | 314° |
| 2026-04-16 14:09 | 14.51764 | 121.01706 | 82 ft | 7 kts | 315° |
| 2026-04-16 14:09 | 14.51785 | 121.01684 | 82 ft | 3 kts | 315° |
| 2026-04-16 14:10 | 14.51801 | 121.01668 | 82 ft | 3 kts | 314° |
| 2026-04-16 14:10 | 14.51812 | 121.01645 | 82 ft | 3 kts | 275° |
| 2026-04-16 14:10 | 14.51802 | 121.01628 | 82 ft | 3 kts | 213° |
| 2026-04-16 14:10 | 14.51780 | 121.01619 | 82 ft | 3 kts | 199° |
| 2026-04-16 14:11 | 14.51753 | 121.01610 | 82 ft | 4 kts | 198° |
| 2026-04-16 14:11 | 14.51737 | 121.01605 | 82 ft | 0 kts | 197° |
| 2026-04-16 14:11 | 14.51736 | 121.01605 | 82 ft | 0 kts | 197° |